createdAt,value
2022-08-05T00:07:59.698Z,2.47
2022-08-05T00:27:36.464Z,2.37
2022-08-05T00:47:56.640Z,2.57
2022-08-05T01:08:29.736Z,2.55
2022-08-05T01:27:50.703Z,2.75
2022-08-05T01:47:54.445Z,3.03
2022-08-05T02:08:01.324Z,2.75
2022-08-05T02:28:08.749Z,3.00
2022-08-05T02:48:12.543Z,3.12
2022-08-05T03:08:16.464Z,3.28
2022-08-05T03:28:21.046Z,3.31
2022-08-05T03:48:26.832Z,3.45
2022-08-05T04:08:36.365Z,3.74
2022-08-05T04:28:38.388Z,3.71
2022-08-05T04:48:43.749Z,3.55
2022-08-05T05:08:50.161Z,3.92
2022-08-05T05:28:54.888Z,3.84
2022-08-05T05:49:00.686Z,4.01
2022-08-05T06:09:07.572Z,3.62
2022-08-05T06:29:25.024Z,3.42
2022-08-05T06:49:17.629Z,3.59
2022-08-05T07:09:24.890Z,3.59
2022-08-05T07:30:22.937Z,3.69
2022-08-05T07:49:35.134Z,3.78
2022-08-05T08:09:40.900Z,3.55
2022-08-05T08:30:05.898Z,3.66
2022-08-05T08:50:06.049Z,3.09
2022-08-05T09:09:58.917Z,3.08
2022-08-05T09:30:06.714Z,3.10
2022-08-05T09:50:10.979Z,3.07
2022-08-05T10:10:17.957Z,3.08
2022-08-05T10:31:20.240Z,2.58
2022-08-05T10:50:35.303Z,2.42
2022-08-05T11:10:34.601Z,2.15
2022-08-05T11:30:41.630Z,2.29
2022-08-05T11:50:46.157Z,2.35
2022-08-05T12:10:52.536Z,2.27
2022-08-05T12:30:57.786Z,2.59
2022-08-05T12:51:03.598Z,2.36
2022-08-05T13:11:09.061Z,2.57
2022-08-05T13:31:14.951Z,2.51
2022-08-05T13:51:21.302Z,2.63
2022-08-05T14:11:27.181Z,2.44
2022-08-05T14:32:02.981Z,2.32
2022-08-05T14:51:38.762Z,2.37
2022-08-05T15:11:51.490Z,2.63
2022-08-05T15:31:52.773Z,2.65
2022-08-05T15:52:03.725Z,2.63
2022-08-05T16:12:00.871Z,3.19
2022-08-05T16:32:09.943Z,2.69
2022-08-05T16:52:12.206Z,2.50
2022-08-05T17:12:17.643Z,2.29
2022-08-05T17:32:23.433Z,2.51
2022-08-05T17:52:30.410Z,2.48
2022-08-05T18:12:36.192Z,2.39
2022-08-05T18:32:42.524Z,2.22
2022-08-05T18:52:50.752Z,2.79
2022-08-05T19:12:54.236Z,2.55
2022-08-05T19:33:00.553Z,6.08
2022-08-05T19:53:10.513Z,9.70
2022-08-05T20:13:12.232Z,11.36
2022-08-05T20:33:18.115Z,7.83
2022-08-05T20:53:36.711Z,2.90
2022-08-05T21:13:47.489Z,2.52
2022-08-05T21:33:37.075Z,2.59
2022-08-05T21:53:41.173Z,2.86
2022-08-05T22:14:33.778Z,2.74
2022-08-05T22:33:57.424Z,2.65
2022-08-05T22:53:58.597Z,4.02
2022-08-05T23:14:04.848Z,4.58
2022-08-05T23:34:11.152Z,4.15
2022-08-05T23:54:16.945Z,4.02
